createdAt,value
2017-12-01T00:04:33.919Z,29.47
2017-12-01T00:09:36.476Z,33.17
2017-12-01T00:14:39.053Z,21.63
2017-12-01T00:19:41.610Z,30.17
2017-12-01T00:24:44.919Z,24.33
2017-12-01T00:29:48.252Z,34.63
2017-12-01T00:34:50.813Z,28.87
2017-12-01T00:39:53.369Z,35.27
2017-12-01T00:44:55.927Z,28.60
2017-12-01T00:49:58.573Z,29.07
2017-12-01T00:55:01.159Z,24.97
2017-12-01T01:00:03.735Z,31.03
2017-12-01T01:05:06.287Z,29.23
2017-12-01T01:10:08.845Z,22.77
2017-12-01T01:15:11.412Z,33.20
2017-12-01T01:20:14.410Z,28.87
2017-12-01T01:25:16.945Z,36.17
2017-12-01T01:30:20.259Z,25.37
2017-12-01T01:35:22.800Z,28.43
2017-12-01T01:40:25.367Z,24.40
2017-12-01T01:45:27.950Z,30.73
2017-12-01T01:50:31.279Z,29.60
2017-12-01T02:00:43.772Z,26.00
2017-12-01T02:05:48.381Z,34.20
2017-12-01T02:10:53.189Z,26.83
2017-12-01T02:15:56.607Z,33.07
2017-12-01T02:21:00.248Z,31.37
2017-12-01T02:26:06.273Z,29.67
2017-12-01T02:31:10.674Z,26.87
2017-12-01T02:36:15.164Z,29.00
2017-12-01T02:41:19.579Z,33.10
2017-12-01T02:46:24.873Z,24.40
2017-12-01T02:51:29.213Z,22.90
2017-12-01T02:56:31.959Z,24.50
2017-12-01T03:01:36.576Z,26.50
2017-12-01T03:06:41.061Z,30.50
2017-12-01T03:11:45.987Z,24.50
2017-12-01T03:16:50.434Z,21.40
2017-12-01T03:21:54.225Z,23.50
2017-12-01T03:26:57.788Z,22.20
2017-12-01T03:32:01.322Z,19.30
2017-12-01T03:37:05.664Z,24.73
2017-12-01T03:42:09.160Z,23.40
2017-12-01T03:47:13.099Z,25.80
2017-12-01T03:57:24.203Z,21.40
2017-12-01T04:02:28.712Z,23.40
2017-12-01T04:07:34.797Z,23.77
2017-12-01T04:12:40.858Z,23.20
2017-12-01T04:17:44.086Z,16.73
2017-12-01T04:22:47.632Z,24.60
2017-12-01T04:27:52.911Z,28.60
2017-12-01T04:32:57.500Z,21.97
2017-12-01T04:38:00.880Z,27.63
2017-12-01T04:43:04.592Z,24.27
2017-12-01T04:48:09.136Z,28.70
2017-12-01T04:53:13.440Z,22.80
2017-12-01T04:58:16.367Z,19.20
2017-12-01T05:03:19.427Z,23.00
2017-12-01T05:08:23.866Z,21.77
2017-12-01T05:13:26.797Z,22.43
2017-12-01T05:18:31.127Z,19.60
2017-12-01T05:23:35.570Z,25.20
2017-12-01T05:33:46.834Z,22.47
2017-12-01T05:38:51.240Z,20.07
2017-12-01T05:43:57.725Z,21.40
2017-12-01T05:49:01.260Z,20.77
2017-12-01T05:54:04.713Z,20.03
2017-12-01T05:59:08.272Z,22.80
2017-12-01T06:14:28.240Z,23.90
2017-12-01T06:19:31.142Z,21.63
2017-12-01T06:24:35.467Z,23.73
2017-12-01T06:29:39.754Z,21.93
2017-12-01T06:34:44.228Z,24.03
2017-12-01T06:39:48.513Z,24.00
2017-12-01T06:44:51.197Z,30.03
2017-12-01T06:49:53.951Z,21.70
2017-12-01T06:54:59.889Z,29.80
2017-12-01T07:00:02.810Z,27.13
2017-12-01T07:05:06.197Z,28.80
2017-12-01T07:10:09.862Z,32.63
2017-12-01T07:15:14.249Z,28.73
2017-12-01T07:20:21.165Z,29.60
2017-12-01T07:25:24.721Z,33.57
2017-12-01T07:30:29.187Z,21.47
2017-12-01T07:35:33.482Z,30.70
2017-12-01T07:40:36.294Z,31.77
2017-12-01T07:45:39.261Z,28.53
2017-12-01T07:50:46.211Z,32.47
2017-12-01T07:55:52.471Z,28.77
2017-12-01T08:00:55.951Z,28.77
2017-12-01T08:11:08.301Z,31.63
2017-12-01T08:21:42.611Z,32.00
2017-12-01T08:26:49.149Z,31.87
2017-12-01T08:31:53.711Z,31.97
2017-12-01T08:36:59.786Z,29.13
2017-12-01T08:42:03.565Z,30.40
2017-12-01T08:47:06.542Z,27.63
2017-12-01T08:52:09.813Z,26.40
2017-12-01T08:57:14.140Z,24.40
2017-12-01T09:02:17.109Z,22.00
2017-12-01T09:12:30.167Z,22.90
2017-12-01T09:17:36.686Z,19.00
2017-12-01T09:22:40.177Z,28.07
2017-12-01T09:27:44.878Z,25.53
2017-12-01T09:32:48.032Z,23.63
2017-12-01T09:37:52.262Z,24.13
2017-12-01T09:42:58.810Z,20.77
2017-12-01T09:48:03.026Z,25.90
2017-12-01T09:53:06.693Z,23.00
2017-12-01T09:58:10.177Z,29.00
2017-12-01T10:03:14.796Z,24.90
2017-12-01T10:08:18.417Z,30.87
2017-12-01T10:13:22.150Z,34.20
2017-12-01T10:18:28.322Z,27.87
2017-12-01T10:23:32.786Z,23.40
2017-12-01T10:28:37.279Z,21.40
2017-12-01T10:33:40.965Z,19.27
2017-12-01T10:38:43.987Z,17.93
2017-12-01T10:43:48.429Z,16.53
2017-12-01T10:48:52.963Z,20.00
2017-12-01T10:53:56.415Z,20.17
2017-12-01T10:59:01.639Z,15.87
2017-12-01T11:04:06.841Z,18.83
2017-12-01T11:09:10.255Z,18.80
2017-12-01T11:14:12.796Z,17.77
2017-12-01T11:19:15.361Z,20.30
2017-12-01T11:24:17.940Z,17.90
2017-12-01T11:29:20.518Z,23.43
2017-12-01T11:34:23.076Z,24.70
2017-12-01T11:39:25.657Z,14.50
2017-12-01T11:44:28.243Z,19.57
2017-12-01T11:49:30.805Z,19.17
2017-12-01T11:54:33.686Z,18.70
2017-12-01T11:59:36.251Z,25.47
2017-12-01T12:04:38.820Z,21.03
2017-12-01T12:09:41.405Z,24.00
2017-12-01T12:14:43.987Z,18.33
2017-12-01T12:19:46.562Z,17.03
2017-12-01T12:24:49.129Z,22.07
2017-12-01T12:29:51.689Z,18.97
2017-12-01T12:34:54.264Z,18.83
2017-12-01T12:39:56.840Z,18.73
2017-12-01T12:45:00.170Z,23.80
2017-12-01T12:50:02.724Z,20.17
2017-12-01T12:55:05.312Z,26.10
2017-12-01T13:00:07.884Z,24.03
2017-12-01T13:05:10.453Z,22.17
2017-12-01T13:10:13.771Z,16.97
2017-12-01T13:15:16.340Z,25.07
2017-12-01T13:20:18.924Z,24.27
2017-12-01T13:25:21.493Z,23.33
2017-12-01T13:30:24.087Z,24.93
2017-12-01T13:35:26.645Z,21.10
2017-12-01T13:40:29.215Z,26.10
2017-12-01T13:45:31.771Z,21.07
2017-12-01T13:50:34.336Z,29.20
2017-12-01T13:55:36.912Z,17.30
2017-12-01T14:00:39.495Z,20.93
2017-12-01T14:05:42.056Z,26.70
2017-12-01T14:10:44.636Z,20.70
2017-12-01T14:15:47.190Z,21.63
2017-12-01T14:20:49.775Z,18.10
2017-12-01T14:25:53.147Z,18.57
2017-12-01T14:30:56.485Z,23.60
2017-12-01T14:35:59.059Z,24.37
2017-12-01T14:41:01.652Z,21.97
2017-12-01T14:46:04.220Z,24.57
2017-12-01T14:51:06.791Z,28.73
2017-12-01T14:56:09.345Z,22.20
2017-12-01T15:01:11.902Z,20.53
2017-12-01T15:06:14.468Z,22.60
2017-12-01T15:11:17.037Z,25.83
2017-12-01T15:16:19.674Z,23.63
2017-12-01T15:21:22.242Z,19.13
2017-12-01T15:26:24.848Z,22.00
2017-12-01T15:31:27.411Z,20.67
2017-12-01T15:36:29.991Z,20.37
2017-12-01T15:41:32.563Z,21.80
2017-12-01T15:46:35.132Z,23.00
2017-12-01T15:51:37.708Z,19.50
2017-12-01T15:56:40.306Z,25.10
2017-12-01T16:01:42.876Z,22.27
2017-12-01T16:06:45.537Z,22.67
2017-12-01T16:11:48.852Z,22.50
2017-12-01T16:16:51.419Z,20.47
2017-12-01T16:21:54.798Z,20.80
2017-12-01T16:26:57.383Z,27.10
2017-12-01T16:31:59.929Z,22.80
2017-12-01T16:37:02.502Z,21.90
2017-12-01T16:42:05.054Z,29.63
2017-12-01T16:47:07.614Z,24.30
2017-12-01T16:52:10.181Z,27.80
2017-12-01T16:57:12.746Z,22.33
2017-12-01T17:02:15.304Z,28.77
2017-12-01T17:07:17.870Z,22.50
2017-12-01T17:12:20.453Z,26.53
2017-12-01T17:17:23.114Z,37.33
2017-12-01T17:22:25.731Z,34.00
2017-12-01T17:27:28.297Z,27.40
2017-12-01T17:32:30.880Z,32.27
2017-12-01T17:37:33.428Z,31.20
2017-12-01T17:42:35.991Z,28.93
2017-12-01T17:47:38.564Z,28.33
2017-12-01T17:52:41.148Z,30.30
2017-12-01T17:57:43.768Z,30.13
2017-12-01T18:02:46.349Z,35.67
2017-12-01T18:07:48.916Z,35.03
2017-12-01T18:12:51.502Z,31.60
2017-12-01T18:17:54.074Z,31.00
2017-12-01T18:22:56.664Z,29.97
2017-12-01T18:27:59.241Z,29.83
2017-12-01T18:33:01.786Z,34.77
2017-12-01T18:38:04.354Z,38.50
2017-12-01T18:43:06.930Z,24.47
2017-12-01T18:48:09.518Z,36.13
2017-12-01T18:53:12.058Z,37.20
2017-12-01T18:58:14.623Z,24.80
2017-12-01T19:03:17.190Z,25.03
2017-12-01T19:08:19.774Z,22.40
2017-12-01T19:13:22.328Z,26.00
2017-12-01T19:18:24.936Z,32.33
2017-12-01T19:23:27.493Z,31.83
2017-12-01T19:28:30.053Z,26.70
2017-12-01T19:33:33.381Z,27.50
2017-12-01T19:38:35.950Z,29.87
2017-12-01T19:43:38.511Z,33.00
2017-12-01T19:48:41.074Z,32.03
2017-12-01T19:53:43.614Z,31.07
2017-12-01T19:58:46.197Z,31.97
2017-12-01T20:03:48.829Z,36.27
2017-12-01T20:08:51.427Z,29.13
2017-12-01T20:13:54.752Z,29.87
2017-12-01T20:18:57.311Z,39.87
2017-12-01T20:23:59.857Z,32.30
2017-12-01T20:29:02.430Z,33.70
2017-12-01T20:34:04.983Z,38.97
2017-12-01T20:39:08.314Z,30.73
2017-12-01T20:44:10.914Z,34.97
2017-12-01T20:49:13.494Z,28.83
2017-12-01T20:54:16.066Z,32.37
2017-12-01T20:59:18.622Z,41.63
2017-12-01T21:04:21.194Z,34.10
2017-12-01T21:09:23.866Z,44.63
2017-12-01T21:14:26.448Z,38.00
2017-12-01T21:19:29.038Z,38.47
2017-12-01T21:24:31.626Z,49.23
2017-12-01T21:29:34.214Z,46.30
2017-12-01T21:34:37.569Z,50.90
2017-12-01T21:39:40.738Z,36.03
2017-12-01T21:44:44.099Z,34.20
2017-12-01T21:49:46.687Z,30.73
2017-12-01T21:54:49.276Z,39.33
2017-12-01T21:59:51.860Z,38.80
2017-12-01T22:04:54.433Z,33.07
2017-12-01T22:09:57.003Z,38.33
2017-12-01T22:14:59.633Z,42.70
2017-12-01T22:20:02.184Z,33.83
2017-12-01T22:25:04.771Z,40.03
2017-12-01T22:30:07.336Z,33.37
2017-12-01T22:35:09.924Z,29.93
2017-12-01T22:40:12.495Z,39.87
2017-12-01T22:45:15.090Z,33.37
2017-12-01T22:50:17.676Z,28.30
2017-12-01T22:55:20.238Z,41.87
2017-12-01T23:00:22.966Z,41.07
2017-12-01T23:05:25.612Z,36.03
2017-12-01T23:10:28.188Z,40.13
2017-12-01T23:15:30.778Z,30.47
2017-12-01T23:20:33.319Z,40.00
2017-12-01T23:25:35.915Z,32.97
2017-12-01T23:30:39.425Z,32.67
2017-12-01T23:35:42.084Z,37.57
2017-12-01T23:40:44.708Z,34.60
2017-12-01T23:45:47.287Z,29.90
2017-12-01T23:50:49.871Z,32.63
2017-12-01T23:55:52.501Z,27.83
